Time;durP1;ratioP1;P1;durP2;ratioP2;P2;SDS_P1;SDS_P2;PMS_P1;PMS_P2;Temp;Humidity;BMP_temperature;BMP_pressure;BME280_temperature;BME280_humidity;BME280_pressure;Samples;Min_cycle;Max_cycle;Signal;HPM_P1;HPM_P2
2023/05/31 00:01:08;;;;;;;1999.90;999.90;;;16.40;99.90;;;;;;5051509;28;20187;-69
2023/05/31 00:03:35;;;;;;;1999.90;999.90;;;16.40;99.90;;;;;;5051748;28;20522;-69
2023/05/31 00:06:00;;;;;;;1999.90;999.90;;;16.30;99.90;;;;;;5051714;28;20650;-69
2023/05/31 00:08:27;;;;;;;1999.90;999.90;;;16.20;99.90;;;;;;5051806;28;20413;-70
2023/05/31 00:10:52;;;;;;;1999.90;999.90;;;16.20;99.90;;;;;;5051400;28;20458;-70
2023/05/31 00:13:18;;;;;;;1999.90;999.90;;;16.10;99.90;;;;;;5051643;28;20910;-69
2023/05/31 00:15:43;;;;;;;1999.90;999.90;;;16.00;99.90;;;;;;5051613;28;20163;-70
2023/05/31 00:18:09;;;;;;;1999.90;999.90;;;16.00;99.90;;;;;;5051758;28;20179;-70
2023/05/31 00:20:34;;;;;;;1999.90;999.90;;;16.00;99.90;;;;;;5051498;28;20535;-70
2023/05/31 00:23:00;;;;;;;1999.90;999.90;;;16.00;99.90;;;;;;5055379;28;20176;-70
2023/05/31 00:25:26;;;;;;;1999.90;999.90;;;15.90;99.90;;;;;;5055605;28;20213;-70
2023/05/31 00:27:51;;;;;;;1999.90;999.90;;;15.80;99.90;;;;;;5055529;28;20198;-70
2023/05/31 00:30:17;;;;;;;1999.90;999.90;;;15.80;99.90;;;;;;5055375;28;20203;-70
2023/05/31 00:32:42;;;;;;;1999.90;999.90;;;15.80;99.90;;;;;;5055426;28;20705;-70
2023/05/31 00:35:08;;;;;;;1999.90;999.90;;;15.70;99.90;;;;;;5055422;28;20254;-70
2023/05/31 00:37:37;;;;;;;1999.90;999.90;;;15.70;99.90;;;;;;5055367;28;20637;-69
2023/05/31 00:40:05;;;;;;;1999.90;999.90;;;15.60;99.90;;;;;;5055364;28;20195;-69
2023/05/31 00:42:31;;;;;;;1999.90;999.90;;;15.60;99.90;;;;;;5055035;28;20405;-69
2023/05/31 00:44:57;;;;;;;1999.90;999.90;;;15.50;99.90;;;;;;5055126;28;20441;-70
2023/05/31 00:47:24;;;;;;;1999.90;999.90;;;15.50;99.90;;;;;;5055046;28;20411;-69
2023/05/31 00:49:50;;;;;;;1999.90;999.90;;;15.50;99.90;;;;;;5055205;28;20202;-69
2023/05/31 00:52:15;;;;;;;1999.90;999.90;;;15.50;99.90;;;;;;5054781;28;21033;-69
2023/05/31 00:54:42;;;;;;;1999.90;999.90;;;15.40;99.90;;;;;;5055011;28;20510;-69
2023/05/31 00:57:07;;;;;;;1999.90;999.90;;;15.50;99.90;;;;;;5054993;28;20227;-69
2023/05/31 00:59:33;;;;;;;1999.90;999.90;;;15.40;99.90;;;;;;5054842;28;20425;-69
2023/05/31 01:02:00;;;;;;;1999.90;999.90;;;15.40;99.90;;;;;;5054530;28;20185;-69
2023/05/31 01:04:26;;;;;;;1999.90;999.90;;;15.40;99.90;;;;;;5054922;28;20255;-69
2023/05/31 01:06:51;;;;;;;1999.90;999.90;;;15.30;99.90;;;;;;5054940;28;20444;-69
2023/05/31 01:09:17;;;;;;;1999.90;999.90;;;15.30;99.90;;;;;;5054714;28;20683;-69
2023/05/31 01:11:48;;;;;;;1999.90;999.90;;;15.20;99.90;;;;;;5054345;28;20207;-69
2023/05/31 01:14:24;;;;;;;1999.90;999.90;;;15.20;99.90;;;;;;5054644;28;20432;-69
2023/05/31 01:17:22;;;;;;;1999.90;999.90;;;15.20;99.90;;;;;;5054628;28;20399;-70
2023/05/31 01:19:56;;;;;;;1999.90;999.90;;;15.20;99.90;;;;;;5054430;28;20962;-69
2023/05/31 01:22:47;;;;;;;1999.90;999.90;;;15.10;99.90;;;;;;5054229;28;20438;-70
2023/05/31 01:25:51;;;;;;;1999.90;999.90;;;15.10;99.90;;;;;;5054757;28;20403;-69
2023/05/31 01:28:18;;;;;;;1999.90;999.90;;;15.10;99.90;;;;;;5000030;28;20416;-70
2023/05/31 01:30:45;;;;;;;1999.90;999.90;;;15.10;99.90;;;;;;5054201;28;20457;-69
2023/05/31 01:33:13;;;;;;;1999.90;999.90;;;15.00;99.90;;;;;;5052805;28;20775;-70
2023/05/31 01:35:38;;;;;;;1999.90;999.90;;;15.00;99.90;;;;;;5054254;28;20403;-69
2023/05/31 01:38:04;;;;;;;1999.90;999.90;;;15.00;99.90;;;;;;5054175;28;20411;-70
2023/05/31 01:40:31;;;;;;;1999.90;999.90;;;15.00;99.90;;;;;;5054108;28;20193;-70
2023/05/31 01:42:58;;;;;;;1999.90;999.90;;;15.00;99.90;;;;;;5053880;28;20176;-70
2023/05/31 01:45:24;;;;;;;1999.90;999.90;;;15.00;99.90;;;;;;5054088;28;20418;-70
2023/05/31 01:47:56;;;;;;;1999.90;999.90;;;14.90;99.90;;;;;;5053963;28;20412;-70
2023/05/31 01:50:22;;;;;;;1999.90;999.90;;;14.90;99.90;;;;;;5053867;28;20500;-70
2023/05/31 01:52:48;;;;;;;1999.90;999.90;;;14.80;99.90;;;;;;5053773;28;20510;-70
2023/05/31 01:55:14;;;;;;;1999.90;999.90;;;14.80;99.90;;;;;;5054013;28;20571;-70
2023/05/31 01:57:42;;;;;;;1999.90;999.90;;;14.80;99.90;;;;;;5053857;28;20163;-70
2023/05/31 02:00:11;;;;;;;1999.90;999.90;;;14.80;99.90;;;;;;5053707;28;20218;-70
2023/05/31 02:02:41;;;;;;;1999.90;999.90;;;14.80;99.90;;;;;;5053469;28;20413;-70
2023/05/31 02:05:11;;;;;;;1999.90;999.90;;;14.80;99.90;;;;;;5053682;28;20769;-70
2023/05/31 02:07:48;;;;;;;1999.90;999.90;;;14.70;99.90;;;;;;5053826;28;20460;-70
2023/05/31 02:10:14;;;;;;;1999.90;999.90;;;14.70;99.90;;;;;;5053560;28;20420;-70
2023/05/31 02:12:40;;;;;;;1999.90;999.90;;;14.70;99.90;;;;;;5053250;28;20413;-70
2023/05/31 02:15:10;;;;;;;1999.90;999.90;;;14.60;99.90;;;;;;5053504;28;20458;-71
2023/05/31 02:17:42;;;;;;;1999.90;999.90;;;14.60;99.90;;;;;;5053632;28;20544;-70
2023/05/31 02:20:12;;;;;;;1999.90;999.90;;;14.60;99.90;;;;;;5053283;28;20969;-70
2023/05/31 02:22:40;;;;;;;1999.90;999.90;;;14.60;99.90;;;;;;5053244;28;20398;-70
2023/05/31 02:25:09;;;;;;;1999.90;999.90;;;14.60;99.90;;;;;;5053352;28;20427;-70
2023/05/31 02:27:35;;;;;;;1999.90;999.90;;;14.50;99.90;;;;;;5053206;28;20404;-70
2023/05/31 02:30:01;;;;;;;1999.90;999.90;;;14.50;99.90;;;;;;5053071;28;20934;-70
2023/05/31 02:32:26;;;;;;;1999.90;999.90;;;14.50;99.90;;;;;;5052951;28;20173;-71
2023/05/31 02:34:52;;;;;;;1999.90;999.90;;;14.40;99.90;;;;;;5053152;28;20178;-70
2023/05/31 02:37:17;;;;;;;1999.90;999.90;;;14.30;99.90;;;;;;5053174;28;20176;-70
2023/05/31 02:39:43;;;;;;;1999.90;999.90;;;14.30;99.90;;;;;;5052939;28;20620;-70
2023/05/31 02:42:08;;;;;;;1999.90;999.90;;;14.30;99.90;;;;;;5052671;28;20175;-70
2023/05/31 02:44:34;;;;;;;1999.90;999.90;;;14.30;99.90;;;;;;5052679;28;20176;-70
2023/05/31 02:47:00;;;;;;;1999.90;999.90;;;14.40;99.90;;;;;;5052856;28;20203;-70
2023/05/31 02:49:25;;;;;;;1999.90;999.90;;;14.40;99.90;;;;;;5052881;28;20198;-70
2023/05/31 02:51:51;;;;;;;1999.90;999.90;;;14.40;99.90;;;;;;5052371;28;20217;-70
2023/05/31 02:54:17;;;;;;;1999.90;999.90;;;14.30;99.90;;;;;;5052788;28;20443;-70
2023/05/31 02:56:42;;;;;;;1999.90;999.90;;;14.30;99.90;;;;;;5052682;28;20175;-71
2023/05/31 02:59:08;;;;;;;1999.90;999.90;;;14.20;99.90;;;;;;5052593;28;20249;-70
2023/05/31 03:01:33;;;;;;;1999.90;999.90;;;14.20;99.90;;;;;;5052425;28;20176;-69
2023/05/31 03:03:59;;;;;;;1999.90;999.90;;;14.20;99.90;;;;;;5052725;28;20222;-70
2023/05/31 03:06:25;;;;;;;1999.90;999.90;;;14.10;99.90;;;;;;5052601;28;20174;-70
2023/05/31 03:08:50;;;;;;;1999.90;999.90;;;14.10;99.90;;;;;;5052410;28;20262;-70
2023/05/31 03:11:16;;;;;;;1999.90;999.90;;;14.10;99.90;;;;;;5052048;28;20336;-69
2023/05/31 03:13:41;;;;;;;1999.90;999.90;;;14.10;99.90;;;;;;5052447;28;20237;-69
2023/05/31 03:16:07;;;;;;;1999.90;999.90;;;14.10;99.90;;;;;;5052420;28;20166;-70
2023/05/31 03:18:32;;;;;;;1999.90;999.90;;;14.00;99.90;;;;;;5052374;28;20531;-70
2023/05/31 03:20:58;;;;;;;1999.90;999.90;;;13.90;99.90;;;;;;5051734;28;20219;-70
2023/05/31 03:23:23;;;;;;;1999.90;999.90;;;13.80;99.90;;;;;;5052336;28;20170;-70
2023/05/31 03:25:49;;;;;;;1999.90;999.90;;;13.80;99.90;;;;;;5053103;28;20609;-70
2023/05/31 03:28:15;;;;;;;1999.90;999.90;;;13.70;99.90;;;;;;5053812;28;20175;-70
2023/05/31 03:30:40;;;;;;;1999.90;999.90;;;13.60;99.90;;;;;;5053990;28;20232;-70
2023/05/31 03:33:06;;;;;;;1999.90;999.90;;;13.60;99.90;;;;;;5053471;28;20163;-70
2023/05/31 03:35:31;;;;;;;1999.90;999.90;;;13.50;99.90;;;;;;5053549;28;20230;-70
2023/05/31 03:37:57;;;;;;;1999.90;999.90;;;13.50;99.90;;;;;;5053244;28;20191;-70
2023/05/31 03:40:22;;;;;;;1999.90;999.90;;;13.40;99.90;;;;;;5052989;28;20569;-70
2023/05/31 03:42:48;;;;;;;1999.90;999.90;;;13.30;99.90;;;;;;5052902;28;20174;-70
2023/05/31 03:45:13;;;;;;;1999.90;999.90;;;13.30;99.90;;;;;;5053057;28;20569;-70
2023/05/31 03:47:40;;;;;;;1999.90;999.90;;;13.30;99.90;;;;;;5052107;28;20178;-69
2023/05/31 03:50:06;;;;;;;1999.90;999.90;;;13.40;99.90;;;;;;5051735;28;20195;-69
2023/05/31 03:52:32;;;;;;;1999.90;999.90;;;13.40;99.90;;;;;;5051742;28;20413;-69
2023/05/31 03:54:58;;;;;;;1999.90;999.90;;;13.40;99.90;;;;;;5051625;28;20817;-69
2023/05/31 03:57:23;;;;;;;1999.90;999.90;;;13.40;99.90;;;;;;5051271;28;20228;-69
2023/05/31 03:59:49;;;;;;;1999.90;999.90;;;13.50;99.90;;;;;;5051782;28;20190;-69
2023/05/31 04:02:14;;;;;;;1999.90;999.90;;;13.40;99.90;;;;;;5051715;28;20192;-70
2023/05/31 04:04:40;;;;;;;1999.90;999.90;;;13.50;99.90;;;;;;5051837;28;20252;-70
2023/05/31 04:07:05;;;;;;;1999.90;999.90;;;13.50;99.90;;;;;;5051768;28;20257;-70
2023/05/31 04:09:31;;;;;;;1999.90;999.90;;;13.50;99.90;;;;;;5051582;28;20199;-70
2023/05/31 04:11:57;;;;;;;1999.90;999.90;;;13.50;99.90;;;;;;5051386;28;20213;-70
2023/05/31 04:14:22;;;;;;;1999.90;999.90;;;13.50;99.90;;;;;;5051725;28;20171;-70
2023/05/31 04:16:48;;;;;;;1999.90;999.90;;;13.40;99.90;;;;;;5051630;28;20164;-70
2023/05/31 04:19:13;;;;;;;1999.90;999.90;;;13.40;99.90;;;;;;5051530;28;20212;-70
2023/05/31 04:21:39;;;;;;;1999.90;999.90;;;13.40;99.90;;;;;;5051386;28;20538;-70
2023/05/31 04:24:05;;;;;;;1999.90;999.90;;;13.40;99.90;;;;;;5051510;28;20240;-70
2023/05/31 04:26:33;;;;;;;1999.90;999.90;;;13.50;99.90;;;;;;5051544;28;20172;-70
2023/05/31 04:28:58;;;;;;;1999.90;999.90;;;13.50;99.90;;;;;;5051478;28;20514;-70
2023/05/31 04:31:24;;;;;;;1999.90;999.90;;;13.40;99.90;;;;;;5051260;28;20482;-70
2023/05/31 04:33:53;;;;;;;1999.90;999.90;;;13.50;99.90;;;;;;5051508;28;20176;-70
2023/05/31 04:36:20;;;;;;;1999.90;999.90;;;13.50;99.90;;;;;;5051429;28;20501;-70
2023/05/31 04:38:47;;;;;;;1999.90;999.90;;;13.40;99.90;;;;;;5051388;28;20777;-70
2023/05/31 04:41:14;;;;;;;1999.90;999.90;;;13.30;99.90;;;;;;5051067;28;20412;-70
2023/05/31 04:43:39;;;;;;;1999.90;999.90;;;13.30;99.90;;;;;;5052017;28;20984;-70
2023/05/31 04:46:05;;;;;;;1999.90;999.90;;;13.30;99.90;;;;;;5051667;28;20420;-70
2023/05/31 04:48:31;;;;;;;1999.90;999.90;;;13.40;99.90;;;;;;5051847;28;20688;-70
2023/05/31 04:50:58;;;;;;;1999.90;999.90;;;13.40;99.90;;;;;;5051395;28;20696;-70
2023/05/31 04:53:24;;;;;;;1999.90;999.90;;;13.40;99.90;;;;;;5051581;28;20412;-70
2023/05/31 04:55:51;;;;;;;1999.90;999.90;;;13.50;99.90;;;;;;5051693;28;20461;-70
2023/05/31 04:58:17;;;;;;;1999.90;999.90;;;13.50;99.90;;;;;;5051867;28;20555;-70
2023/05/31 05:00:43;;;;;;;1999.90;999.90;;;13.50;99.90;;;;;;5051574;28;20567;-70
2023/05/31 05:03:10;;;;;;;1999.90;999.90;;;13.50;99.90;;;;;;5051013;28;20251;-70
2023/05/31 05:05:35;;;;;;;1999.90;999.90;;;13.60;99.90;;;;;;5051204;28;20412;-70
2023/05/31 05:08:02;;;;;;;1999.90;999.90;;;13.60;99.90;;;;;;5053362;28;20416;-69
2023/05/31 05:10:27;;;;;;;1999.90;999.90;;;13.60;99.90;;;;;;5054788;28;20353;-69
2023/05/31 05:12:53;;;;;;;1999.90;999.90;;;13.50;99.90;;;;;;5054472;28;20961;-70
2023/05/31 05:15:18;;;;;;;1999.90;999.90;;;13.50;99.90;;;;;;5054715;28;20178;-69
2023/05/31 05:17:45;;;;;;;1999.90;999.90;;;13.50;99.90;;;;;;5054619;28;20175;-69
2023/05/31 05:20:11;;;;;;;1999.90;999.90;;;13.50;99.90;;;;;;5054326;28;20772;-70
2023/05/31 05:22:37;;;;;;;1999.90;999.90;;;13.40;99.90;;;;;;5054102;28;20487;-70
2023/05/31 05:25:03;;;;;;;1999.90;999.90;;;13.50;99.90;;;;;;5054466;28;20915;-70
2023/05/31 05:27:28;;;;;;;1999.90;999.90;;;13.60;99.90;;;;;;5054476;28;20172;-70
2023/05/31 05:29:54;;;;;;;1999.90;999.90;;;13.60;99.90;;;;;;5054306;28;20444;-70
2023/05/31 05:32:20;;;;;;;1999.90;999.90;;;13.70;99.90;;;;;;5054090;28;20299;-70
2023/05/31 05:34:46;;;;;;;1999.90;999.90;;;13.70;99.90;;;;;;5054261;28;20402;-70
2023/05/31 05:37:11;;;;;;;1999.90;999.90;;;13.80;99.90;;;;;;5054451;28;20589;-70
2023/05/31 05:39:37;;;;;;;1999.90;999.90;;;13.90;99.90;;;;;;5054132;28;20193;-69
2023/05/31 05:42:03;;;;;;;1999.90;999.90;;;14.00;99.90;;;;;;5054187;28;20202;-70
2023/05/31 05:44:29;;;;;;;1999.90;999.90;;;14.10;99.90;;;;;;5054539;28;20181;-70
2023/05/31 05:46:56;;;;;;;1999.90;999.90;;;14.10;99.90;;;;;;5054354;28;20405;-70
2023/05/31 05:49:21;;;;;;;1999.90;999.90;;;14.20;99.90;;;;;;5054177;28;20199;-70
2023/05/31 05:51:47;;;;;;;1999.90;999.90;;;14.10;99.90;;;;;;5054169;28;20454;-70
2023/05/31 05:54:13;;;;;;;1999.90;999.90;;;14.20;99.90;;;;;;5055237;28;20175;-70
2023/05/31 05:56:38;;;;;;;1999.90;999.90;;;14.20;99.90;;;;;;5055210;28;20198;-70
2023/05/31 05:59:04;;;;;;;1999.90;999.90;;;14.20;99.90;;;;;;5053887;28;20195;-70
2023/05/31 06:01:30;;;;;;;1999.90;999.90;;;14.30;99.90;;;;;;5054737;28;20180;-70
2023/05/31 06:03:56;;;;;;;1999.90;999.90;;;14.40;99.90;;;;;;5054878;28;20808;-70
2023/05/31 06:06:21;;;;;;;1999.90;999.90;;;14.70;99.90;;;;;;5054426;28;20164;-70
2023/05/31 06:08:47;;;;;;;1999.90;999.90;;;14.80;99.90;;;;;;5054272;28;20247;-70
2023/05/31 06:11:15;;;;;;;1999.90;999.90;;;14.90;99.90;;;;;;5054114;28;20592;-70
2023/05/31 06:13:43;;;;;;;1999.90;999.90;;;15.00;99.90;;;;;;5054410;28;20424;-70
2023/05/31 06:16:08;;;;;;;1999.90;999.90;;;15.10;99.90;;;;;;5054665;28;20537;-70
2023/05/31 06:18:34;;;;;;;1999.90;999.90;;;15.30;99.90;;;;;;5053362;28;20413;-70
2023/05/31 06:21:00;;;;;;;1999.90;999.90;;;15.50;99.90;;;;;;5053589;28;20239;-70
2023/05/31 06:23:26;;;;;;;1999.90;999.90;;;15.40;99.90;;;;;;5055055;28;20175;-70
2023/05/31 06:25:52;;;;;;;1999.90;999.90;;;15.60;99.90;;;;;;5054655;28;20493;-70
2023/05/31 06:28:17;;;;;;;1999.90;999.90;;;15.70;99.90;;;;;;5054943;28;20219;-70
2023/05/31 06:30:43;;;;;;;1999.90;999.90;;;15.80;99.90;;;;;;5054270;28;20743;-70
2023/05/31 06:33:10;;;;;;;1999.90;999.90;;;15.90;99.90;;;;;;5054229;28;20224;-70
2023/05/31 06:35:36;;;;;;;1999.90;999.90;;;16.10;99.90;;;;;;5054694;28;20764;-70
2023/05/31 06:38:03;;;;;;;1999.90;999.90;;;16.20;99.90;;;;;;5054563;28;20410;-70
2023/05/31 06:40:29;;;;;;;1999.90;999.90;;;16.40;99.90;;;;;;5054517;28;20205;-70
2023/05/31 06:42:55;;;;;;;1999.90;999.90;;;16.40;99.90;;;;;;5053545;28;20452;-70
2023/05/31 06:45:20;;;;;;;1999.90;999.90;;;16.40;99.90;;;;;;5053697;28;20755;-70
2023/05/31 06:47:46;;;;;;;1999.90;999.90;;;16.20;99.90;;;;;;5053899;28;20205;-70
2023/05/31 06:50:12;;;;;;;1999.90;999.90;;;16.40;99.90;;;;;;5053204;28;20236;-70
2023/05/31 06:52:39;;;;;;;1999.90;999.90;;;16.50;99.90;;;;;;5052443;28;20259;-70
2023/05/31 06:55:05;;;;;;;1999.90;999.90;;;16.50;99.90;;;;;;5052939;28;20408;-69
2023/05/31 06:57:31;;;;;;;1999.90;999.90;;;16.50;99.90;;;;;;5052824;28;20404;-70
2023/05/31 06:59:57;;;;;;;1999.90;999.90;;;16.70;99.90;;;;;;5052595;28;20429;-70
2023/05/31 07:02:23;;;;;;;1999.90;999.90;;;16.80;99.90;;;;;;5052271;28;20589;-70
2023/05/31 07:04:49;;;;;;;1999.90;999.90;;;16.80;99.90;;;;;;5052838;28;20525;-70
2023/05/31 07:07:15;;;;;;;1999.90;999.90;;;16.90;99.90;;;;;;5052462;28;20416;-70
2023/05/31 07:09:41;;;;;;;1999.90;999.90;;;16.90;99.90;;;;;;5052426;28;20432;-69
2023/05/31 07:12:06;;;;;;;1999.90;999.90;;;17.10;99.90;;;;;;5052206;28;20196;-70
2023/05/31 07:14:32;;;;;;;1999.90;999.90;;;17.30;99.90;;;;;;5052423;28;20168;-70
2023/05/31 07:16:58;;;;;;;1999.90;999.90;;;17.40;99.90;;;;;;5052408;28;20402;-70
2023/05/31 07:19:23;;;;;;;1999.90;999.90;;;17.50;99.90;;;;;;5052316;28;20200;-70
2023/05/31 07:21:49;;;;;;;1999.90;999.90;;;17.50;99.90;;;;;;5051876;28;20173;-69
2023/05/31 07:24:15;;;;;;;1999.90;999.90;;;17.70;99.90;;;;;;5052145;28;20169;-70
2023/05/31 07:26:40;;;;;;;1999.90;999.90;;;17.80;99.90;;;;;;5052239;28;20574;-70
2023/05/31 07:29:06;;;;;;;1999.90;999.90;;;17.90;99.90;;;;;;5052188;28;20198;-70
2023/05/31 07:31:31;;;;;;;1999.90;999.90;;;18.00;99.90;;;;;;5050785;28;20198;-70
2023/05/31 07:33:57;;;;;;;1999.90;999.90;;;18.20;99.90;;;;;;5052312;28;20270;-70
2023/05/31 07:36:26;;;;;;;1999.90;999.90;;;18.40;99.90;;;;;;5052222;28;20169;-70
2023/05/31 07:38:53;;;;;;;1999.90;999.90;;;18.50;99.90;;;;;;5052104;28;20172;-70
2023/05/31 07:41:18;;;;;;;1999.90;999.90;;;18.60;99.90;;;;;;5051791;28;20408;-70
2023/05/31 07:43:45;;;;;;;1999.90;999.90;;;18.60;99.90;;;;;;5052425;28;20964;-71
2023/05/31 07:46:11;;;;;;;1999.90;999.90;;;18.70;99.90;;;;;;5052544;28;20432;-71
2023/05/31 07:48:36;;;;;;;1999.90;999.90;;;18.80;99.90;;;;;;5052264;28;20402;-71
2023/05/31 07:51:02;;;;;;;1999.90;999.90;;;18.90;99.90;;;;;;5051835;28;20202;-71
2023/05/31 07:53:28;;;;;;;1999.90;999.90;;;19.10;99.90;;;;;;5052403;28;20187;-71
2023/05/31 07:55:53;;;;;;;1999.90;999.90;;;19.10;99.90;;;;;;5052306;28;20641;-71
2023/05/31 07:58:19;;;;;;;1999.90;999.90;;;19.20;99.90;;;;;;5052079;28;20214;-71
2023/05/31 08:00:45;;;;;;;1999.90;999.90;;;19.20;99.90;;;;;;5052110;28;20194;-71
2023/05/31 08:03:10;;;;;;;1999.90;999.90;;;19.30;99.90;;;;;;5051966;28;20199;-71
2023/05/31 08:05:36;;;;;;;1999.90;999.90;;;19.40;99.90;;;;;;5051984;28;20204;-71
2023/05/31 08:08:02;;;;;;;1999.90;999.90;;;19.50;99.90;;;;;;5052129;28;20176;-71
2023/05/31 08:10:29;;;;;;;1999.90;999.90;;;19.50;99.90;;;;;;5052210;28;20200;-71
2023/05/31 08:12:55;;;;;;;1999.90;999.90;;;19.50;99.90;;;;;;5051897;28;20504;-71
2023/05/31 08:15:21;;;;;;;1999.90;999.90;;;19.60;99.90;;;;;;5052205;28;20412;-71
2023/05/31 08:17:47;;;;;;;1999.90;999.90;;;19.70;99.90;;;;;;5051959;28;20406;-71
2023/05/31 08:20:15;;;;;;;1999.90;999.90;;;19.80;99.90;;;;;;5052277;28;20195;-71
2023/05/31 08:22:44;;;;;;;1999.90;999.90;;;19.80;99.90;;;;;;5052131;28;20437;-71
2023/05/31 08:25:12;;;;;;;1999.90;999.90;;;19.80;99.90;;;;;;5051652;28;20552;-71
2023/05/31 08:27:40;;;;;;;1999.90;999.90;;;20.00;99.90;;;;;;5051511;28;20410;-71
2023/05/31 08:30:07;;;;;;;1999.90;999.90;;;20.10;99.90;;;;;;5051347;28;20401;-71
2023/05/31 08:32:33;;;;;;;1999.90;999.90;;;20.00;99.90;;;;;;5051311;28;21048;-71
2023/05/31 08:34:59;;;;;;;1999.90;999.90;;;20.10;99.90;;;;;;5051410;28;20486;-71
2023/05/31 08:37:24;;;;;;;1999.90;999.90;;;20.20;99.90;;;;;;5051589;28;20230;-72
2023/05/31 08:39:50;;;;;;;1999.90;999.90;;;20.20;99.90;;;;;;5051414;28;20671;-71
2023/05/31 08:42:24;;;;;;;1999.90;999.90;;;20.30;99.90;;;;;;5052256;28;20171;-71
2023/05/31 08:44:50;;;;;;;1999.90;999.90;;;20.30;99.90;;;;;;5055655;28;20572;-70
2023/05/31 08:47:25;;;;;;;1999.90;999.90;;;20.50;99.90;;;;;;5055172;28;20400;-71
2023/05/31 08:49:52;;;;;;;1999.90;999.90;;;20.60;99.90;;;;;;5055182;28;20205;-71
2023/05/31 08:52:18;;;;;;;1999.90;999.90;;;20.70;99.90;;;;;;5054846;28;20447;-71
2023/05/31 08:54:45;;;;;;;1999.90;999.90;;;20.90;99.90;;;;;;5055083;28;20412;-71
2023/05/31 08:57:12;;;;;;;1999.90;999.90;;;21.00;99.90;;;;;;5055020;28;20380;-71
2023/05/31 08:59:38;;;;;;;1999.90;999.90;;;21.10;99.90;;;;;;5054827;28;20402;-70
2023/05/31 09:02:04;;;;;;;1999.90;999.90;;;21.20;99.90;;;;;;5054724;28;20386;-71
2023/05/31 09:04:30;;;;;;;1999.90;999.90;;;21.30;99.90;;;;;;5054779;28;20445;-71
2023/05/31 09:06:55;;;;;;;1999.90;999.90;;;21.50;99.90;;;;;;5054810;28;20388;-71
2023/05/31 09:09:21;;;;;;;1999.90;999.90;;;21.50;99.90;;;;;;5054683;28;20221;-71
2023/05/31 09:11:47;;;;;;;1999.90;999.90;;;21.70;99.90;;;;;;5054380;28;20206;-71
2023/05/31 09:14:12;;;;;;;1999.90;999.90;;;21.80;99.90;;;;;;5055919;28;20163;-71
2023/05/31 09:16:38;;;;;;;1999.90;999.90;;;22.00;99.90;;;;;;5056906;28;20164;-70
2023/05/31 09:19:05;;;;;;;1999.90;999.90;;;22.20;99.90;;;;;;5054608;28;20997;-71
2023/05/31 09:21:42;;;;;;;1999.90;999.90;;;22.30;99.90;;;;;;5054374;28;20313;-70
2023/05/31 09:24:10;;;;;;;1999.90;999.90;;;22.30;99.40;;;;;;5054404;28;20414;-71
2023/05/31 09:26:48;;;;;;;1999.90;999.90;;;22.30;99.90;;;;;;5055101;28;20421;-71
2023/05/31 09:29:15;;;;;;;1999.90;999.90;;;22.50;99.60;;;;;;5054380;28;20434;-71
2023/05/31 09:31:41;;;;;;;1999.90;999.90;;;22.40;96.50;;;;;;5054108;28;20434;-71
2023/05/31 09:34:26;;;;;;;1999.90;999.90;;;22.40;93.60;;;;;;5054316;28;20853;-71
2023/05/31 09:36:52;;;;;;;1999.90;999.90;;;22.50;94.90;;;;;;5054353;28;20372;-71
2023/05/31 09:39:19;;;;;;;1999.90;999.90;;;22.60;92.70;;;;;;5054347;28;20400;-71
2023/05/31 09:41:49;;;;;;;1999.90;999.90;;;22.80;89.80;;;;;;5053873;28;20676;-71
2023/05/31 09:44:15;;;;;;;1999.90;999.90;;;23.00;90.40;;;;;;5054345;28;20762;-71
2023/05/31 09:46:41;;;;;;;1999.90;999.90;;;23.20;88.10;;;;;;5054059;28;20398;-71
2023/05/31 09:49:09;;;;;;;1999.90;999.90;;;23.30;76.70;;;;;;5053898;28;20187;-71
2023/05/31 09:51:35;;;;;;;1999.90;999.90;;;23.50;72.50;;;;;;5053611;28;20428;-71
2023/05/31 09:54:07;;;;;;;1999.90;999.90;;;23.60;72.70;;;;;;5053207;28;20437;-71
2023/05/31 09:56:36;;;;;;;1999.90;999.90;;;23.70;65.40;;;;;;5053987;28;20426;-71
2023/05/31 09:59:05;;;;;;;1999.90;999.90;;;23.90;64.00;;;;;;5053753;28;20420;-71
2023/05/31 10:01:35;;;;;;;1999.90;999.90;;;24.10;55.60;;;;;;5053427;28;20408;-72
2023/05/31 10:04:03;;;;;;;1999.90;999.90;;;24.10;50.60;;;;;;5053816;28;20376;-71
2023/05/31 10:06:29;;;;;;;1999.90;999.90;;;24.10;54.50;;;;;;5053751;28;20754;-71
2023/05/31 10:08:55;;;;;;;1999.90;999.90;;;24.30;52.70;;;;;;5053690;28;20759;-71
2023/05/31 10:11:26;;;;;;;1999.90;999.90;;;24.40;45.90;;;;;;5053400;28;20432;-71
2023/05/31 10:13:59;;;;;;;1999.90;999.90;;;24.40;42.60;;;;;;5055651;28;20194;-71
2023/05/31 10:16:28;;;;;;;1999.90;999.90;;;24.50;42.80;;;;;;5059176;28;20416;-71
2023/05/31 10:18:59;;;;;;;1999.90;999.90;;;24.60;45.30;;;;;;5058350;28;20410;-71
2023/05/31 10:21:27;;;;;;;1999.90;999.90;;;24.70;39.70;;;;;;5057168;28;20405;-71
2023/05/31 10:24:19;;;;;;;1999.90;999.90;;;24.60;36.10;;;;;;5058934;28;20434;-71
2023/05/31 10:27:02;;;;;;;1999.90;999.90;;;24.70;38.20;;;;;;5058005;28;20446;-71
2023/05/31 10:29:43;;;;;;;1999.90;999.90;;;25.00;42.60;;;;;;5057551;28;20449;-71
2023/05/31 10:32:24;;;;;;;1999.90;999.90;;;25.10;40.10;;;;;;5056371;28;20456;-71
2023/05/31 10:34:51;;;;;;;1999.90;999.90;;;25.30;38.10;;;;;;5057219;28;20373;-71
2023/05/31 10:37:17;;;;;;;1999.90;999.90;;;25.40;34.00;;;;;;5056076;28;20858;-71
2023/05/31 10:39:49;;;;;;;1999.90;999.90;;;25.60;30.30;;;;;;5056453;28;20400;-71
2023/05/31 10:42:53;;;;;;;1999.90;999.90;;;25.70;29.10;;;;;;5054481;28;20402;-71
2023/05/31 10:45:30;;;;;;;1999.90;999.90;;;25.90;28.80;;;;;;5052932;28;20398;-71
2023/05/31 10:48:14;;;;;;;1999.90;999.90;;;26.10;23.40;;;;;;5053143;28;20406;-71
2023/05/31 10:50:53;;;;;;;1999.90;999.90;;;26.30;20.60;;;;;;5052809;28;20454;-71
2023/05/31 10:53:18;;;;;;;1999.90;999.90;;;26.30;16.30;;;;;;5052744;28;20907;-71
2023/05/31 10:55:47;;;;;;;1999.90;999.90;;;26.40;19.60;;;;;;5052656;28;20405;-71
2023/05/31 10:58:25;;;;;;;1999.90;999.90;;;26.40;17.60;;;;;;5052712;28;20239;-71
2023/05/31 11:00:56;;;;;;;1999.90;999.90;;;26.40;13.90;;;;;;5052500;28;20400;-71
2023/05/31 11:03:24;;;;;;;1999.90;999.90;;;26.50;16.10;;;;;;5052649;28;20371;-71
2023/05/31 11:05:57;;;;;;;1999.90;999.90;;;26.70;17.60;;;;;;5052396;28;20407;-71
2023/05/31 11:08:23;;;;;;;1999.90;999.90;;;26.60;13.80;;;;;;5052960;28;20896;-71
2023/05/31 11:10:49;;;;;;;1999.90;999.90;;;26.80;16.70;;;;;;5052235;28;20803;-71
2023/05/31 11:13:15;;;;;;;1999.90;999.90;;;27.10;15.70;;;;;;5052268;28;20406;-71
2023/05/31 11:15:42;;;;;;;1999.90;999.90;;;27.30;15.00;;;;;;5052306;28;20164;-71
2023/05/31 11:18:09;;;;;;;1999.90;999.90;;;27.40;13.00;;;;;;5052402;28;20199;-71
2023/05/31 11:20:36;;;;;;;1999.90;999.90;;;27.40;11.20;;;;;;5052143;28;20533;-71
2023/05/31 11:23:17;;;;;;;1999.90;999.90;;;27.50;12.40;;;;;;5052610;28;20785;-71
2023/05/31 11:25:43;;;;;;;1999.90;999.90;;;27.50;10.60;;;;;;5052283;28;20402;-71
2023/05/31 11:28:10;;;;;;;1999.90;999.90;;;27.60;8.70;;;;;;5052259;28;20437;-71
2023/05/31 11:30:37;;;;;;;1999.90;999.90;;;27.50;6.20;;;;;;5052020;28;20429;-71
2023/05/31 11:33:12;;;;;;;1999.90;999.90;;;27.60;6.80;;;;;;5051926;28;20776;-71
2023/05/31 11:35:38;;;;;;;1999.90;999.90;;;27.70;6.10;;;;;;5052464;28;20394;-71
2023/05/31 11:38:04;;;;;;;1999.90;999.90;;;27.80;7.50;;;;;;5052274;28;20841;-71
2023/05/31 11:40:31;;;;;;;1999.90;999.90;;;27.80;7.30;;;;;;5051979;28;20183;-71
2023/05/31 11:43:03;;;;;;;1999.90;999.90;;;27.90;6.50;;;;;;5051754;28;20402;-71
2023/05/31 11:45:32;;;;;;;1999.90;999.90;;;28.00;5.80;;;;;;5053590;28;20467;-71
2023/05/31 11:48:48;;;;;;;1999.90;999.90;;;28.00;2.90;;;;;;5054405;28;21136;-71
2023/05/31 11:51:14;;;;;;;1999.90;999.90;;;28.10;5.30;;;;;;4953522;29;20529;-71
2023/05/31 11:53:39;;;;;;;1999.90;999.90;;;28.20;5.40;;;;;;4953732;29;20411;-71
2023/05/31 11:56:06;;;;;;;1999.90;999.90;;;28.40;7.00;;;;;;4999988;28;20187;-72
2023/05/31 11:58:32;;;;;;;1999.90;999.90;;;28.60;3.70;;;;;;5053169;28;20167;-71
2023/05/31 12:00:59;;;;;;;1999.90;999.90;;;28.80;6.20;;;;;;5051403;28;20434;-71